Punta Gorda, FL

8:29 AM EDT on August 01, 2015 (GMT -0400)
Charlotte County | | Change Station
CLOSE
Current Station
Airport
Location: Punta Gorda,
Elevation: 26 ft
Nearby Weather Stations
Active Advisory: Coastal Hazard Statement

Elev 26 ft 26.92 °N, 81.99 °W | Updated 36 minutes ago

Mostly Cloudy
Mostly Cloudy
75 °F
Feels Like 75 °F
N
6
Wind Variable Wind from SSE

Today
High -- | Low -- °F
--% Chance of Precip.
Yesterday
High -- | Low -- °F
Precip. -- in
6:52 AM 8:16 PM
Full, 98% visible
Pressure 29.99 in
Visibility 10.0 miles
Clouds Clear
Dew Point 74 °F
Humidity 96%
Rainfall 0.15 in
Snow Depth Not available.
UV 1 out of 12
Pollen .60 out of 12
Air Quality Not available.
Flu Activity Not available.
METAR KPGD 011153Z 16005KT 10SM CLR 24/23 A2999 RMK AO2 SLP156 60015 70078 T02390233 10239 20217 55002

More Conditions Fewer Conditions

Pressure 29.99 in
Visibility 10.0 miles
Clouds Clear
Dew Point 74 °F
Humidity 96%
Rainfall 0.15 in
Snow Depth Not available.
UV 1 out of 12
Pollen .60 out of 12
Air Quality Not available.
Flu Activity Not available.
METAR KPGD 011153Z 16005KT 10SM CLR 24/23 A2999 RMK AO2 SLP156 60015 70078 T02390233 10239 20217 55002

More Conditions Fewer Conditions

10-Day Weather Forecast

×

Almanac

Astronomy

Aug. 01, 2015 Rise Set
Actual Time
Civil Twilight
Nautical Twilight
Astronomical Twilight
Moon
Length of Visible Light
Length of Day
Tomorrow will be .
, % of the Moon is Illuminated

Today's Extremes

State Highs State Lows

Community

WunderPhotos

Upload Photos

1,842,925 photos uploaded!

WunderBlogs® & News

Nearby

Air Quality

  Air Quality AQ Index Pollutant
Not available.

Snow Depth

Station Depth Elevation

Earthquake Activity

City Distance Mag. Time & Date
Minimum magnitude displayed is 2.5.

Coastal Water Temperatures

Place Temperature

Stations

Nearby Weather Stations

Station Location Temp. Windchill Dew Point Humidity Wind Precip. Elev Updated Type
                   
Coastal Hazard Statement
Statement as of 9:37 PM EDT on July 31, 2015

... High rip current risk now in effect through Saturday evening...

* rip current timing... through Saturday evening.

* Rip current impacts... marine conditions support stronger or
more frequent rip currents. If caught in a rip current... do
not fight it by trying to swim back to shore. Try to get the
attention of lifeguards by calling out or waving your hands.
If you are able or if no help is available... swim parallel to
the beach until the current weakens... and then swim toward
shore.

Precautionary/preparedness actions...

Rip currents are powerful channels of water flowing quickly away
from shore... which occur most often at low spots or breaks in The
Sandbar and in the vicinity of structures such as groins...
jetties and piers. Heed the advice of lifeguards and the beach
patrol. Pay attention to flags and posted signs.



Http://www.Weather.Gov/Tampa